createdAt,value
2019-04-01T17:16:50.139Z,48.126221
2019-04-01T17:17:59.655Z,48.028564
2019-04-01T17:19:09.155Z,48.736572
2019-04-01T17:20:18.682Z,48.553467
2019-04-01T17:21:28.225Z,48.657227
2019-04-01T17:22:38.715Z,48.986816
2019-04-01T17:23:48.314Z,49.493408
2019-04-01T17:24:57.926Z,49.591064
2019-04-01T17:26:07.327Z,49.816895
2019-04-01T17:27:16.867Z,50.12207
2019-04-01T17:28:26.365Z,50.427246
2019-04-01T17:29:36.857Z,50.55542
2019-04-01T17:30:46.511Z,50.756836
2019-04-01T17:31:56.008Z,51.159668
2019-04-01T17:33:08.317Z,52.001953
2019-04-01T17:34:15.117Z,51.391602
2019-04-01T17:35:24.583Z,52.001953
2019-04-01T17:36:34.107Z,52.124023
2019-04-01T17:37:43.664Z,52.429199
2019-04-01T17:38:53.198Z,52.429199
2019-04-01T17:40:02.785Z,53.167725
2019-04-01T17:41:22.156Z,53.063965
2019-04-01T17:42:31.660Z,53.167725
2019-04-01T17:43:42.155Z,53.4729
2019-04-01T17:44:51.677Z,53.69873
2019-04-01T17:46:01.284Z,53.900146
2019-04-01T17:47:10.833Z,53.80249
2019-04-01T17:48:20.466Z,54.333496
2019-04-01T17:49:30.223Z,54.333496
2019-04-01T17:50:39.546Z,54.437256
2019-04-01T17:51:49.039Z,54.870605
2019-04-01T17:52:59.555Z,54.974365
2019-04-01T17:54:09.104Z,55.175781
2019-04-01T17:55:18.633Z,55.279541
2019-04-01T17:56:28.190Z,55.505371
2019-04-01T17:57:37.794Z,55.712891
2019-04-01T17:58:47.333Z,55.810547
2019-04-01T17:59:56.892Z,55.810547
2019-04-01T18:01:06.413Z,55.712891
2019-04-01T18:02:15.937Z,56.018066
2019-04-01T18:03:25.461Z,56.018066
2019-04-01T18:04:35.005Z,56.347656
2019-04-01T18:05:44.563Z,56.347656
2019-04-01T18:06:54.086Z,56.652832
2019-04-01T18:08:04.932Z,56.958008
2019-04-01T18:09:13.173Z,56.756592
2019-04-01T18:10:22.743Z,56.884766
2019-04-01T18:11:33.282Z,57.189941
2019-04-01T18:12:42.808Z,57.086182
2019-04-01T18:13:52.306Z,57.293701
2019-04-01T18:15:01.877Z,57.495117
2019-04-01T18:16:11.451Z,57.800293
2019-04-01T18:17:20.948Z,57.623291
2019-04-01T18:18:33.698Z,57.928467
2019-04-01T18:19:39.990Z,58.135986
2019-04-01T18:20:49.591Z,57.830811
2019-04-01T18:22:00.101Z,58.441162
2019-04-01T18:23:08.609Z,58.441162
2019-04-01T18:24:18.120Z,58.673096
2019-04-01T18:25:28.642Z,58.673096
2019-04-01T18:26:38.173Z,58.673096
2019-04-01T18:27:47.678Z,58.874512
2019-04-01T18:28:57.189Z,58.874512
2019-04-01T18:30:06.743Z,58.978271
2019-04-01T18:31:16.240Z,59.313965
2019-04-01T18:32:25.749Z,59.313965
2019-04-01T18:33:36.264Z,59.515381
2019-04-01T18:34:45.787Z,59.7229
2019-04-01T18:35:55.346Z,59.820557
2019-04-01T18:37:04.852Z,60.36377
2019-04-01T18:38:14.425Z,60.05249
2019-04-01T18:39:23.970Z,60.461426
2019-04-01T18:40:35.476Z,60.565186
2019-04-01T18:41:44.089Z,60.766602
2019-04-01T18:42:53.616Z,60.565186
2019-04-01T18:44:03.128Z,60.900879
2019-04-01T18:45:12.639Z,61.004639
2019-04-01T18:46:23.208Z,61.102295
2019-04-01T18:47:31.817Z,61.206055
2019-04-01T18:48:42.279Z,61.51123
2019-04-01T18:49:52.814Z,62.432861
2019-04-01T18:51:02.393Z,62.225342
2019-04-01T18:52:11.895Z,62.158203
2019-04-01T18:53:21.400Z,62.463379
2019-04-01T18:54:31.911Z,62.359619
2019-04-01T18:55:41.478Z,61.846924
2019-04-01T18:56:51.011Z,61.950684
2019-04-01T18:58:00.496Z,61.340332
2019-04-01T18:59:10.028Z,62.054443
2019-04-01T19:00:19.578Z,62.158203
2019-04-01T19:01:29.111Z,62.286377
2019-04-01T19:02:38.643Z,62.182617
2019-04-01T19:03:48.179Z,62.286377
2019-04-01T19:04:57.698Z,62.286377
2019-04-01T19:06:07.430Z,62.390137
2019-04-01T19:07:16.749Z,62.390137
2019-04-01T19:08:27.238Z,62.420654
2019-04-01T19:09:37.753Z,62.62207
2019-04-01T19:10:47.461Z,62.82959
2019-04-01T19:12:03.537Z,62.420654
2019-04-01T19:13:12.134Z,62.420654
2019-04-01T19:14:17.988Z,62.62207
2019-04-01T19:15:28.131Z,62.518311
2019-04-01T19:16:38.129Z,62.420654
2019-04-01T19:17:47.661Z,62.854004
2019-04-01T19:18:57.224Z,62.957764
2019-04-01T19:20:06.748Z,62.756348
2019-04-01T19:21:16.319Z,63.061523
2019-04-01T19:22:25.855Z,62.445068
2019-04-01T19:23:35.386Z,62.548828
2019-04-01T19:24:44.934Z,62.652588
2019-04-01T19:25:55.199Z,62.445068
2019-04-01T19:27:04.008Z,62.347412
2019-04-01T19:28:13.538Z,62.139893
2019-04-01T19:29:23.063Z,62.036133
2019-04-01T19:30:32.639Z,62.139893
2019-04-01T19:31:42.153Z,62.139893
2019-04-01T19:32:51.676Z,62.139893
2019-04-01T19:34:01.220Z,62.036133
2019-04-01T19:35:11.744Z,61.425781
2019-04-01T19:36:21.296Z,61.425781
2019-04-01T19:37:33.602Z,61.322021
2019-04-01T19:38:40.327Z,61.523438
2019-04-01T19:39:49.883Z,61.322021
2019-04-01T19:40:59.867Z,61.322021
2019-04-01T19:42:08.933Z,61.218262
2019-04-01T19:43:18.452Z,61.218262
2019-04-01T19:44:27.967Z,61.322021
2019-04-01T19:45:37.517Z,61.425781
2019-04-01T19:46:47.055Z,61.114502
2019-04-01T19:47:57.326Z,61.322021
2019-04-01T19:49:06.104Z,61.218262
2019-04-01T19:50:18.145Z,61.553955
2019-04-01T19:51:25.139Z,61.450195
2019-04-01T19:52:34.646Z,61.553955
2019-04-01T19:53:44.167Z,61.859131
2019-04-01T19:54:53.827Z,61.761475
2019-04-01T19:56:03.461Z,62.27417
2019-04-01T19:57:12.877Z,62.097168
2019-04-01T19:58:22.394Z,62.811279
2019-04-01T19:59:31.956Z,62.70752
2019-04-01T20:00:41.535Z,62.70752
2019-04-01T20:01:51.089Z,62.915039
2019-04-01T20:03:00.657Z,63.146973
2019-04-01T20:04:10.163Z,63.354492
2019-04-01T20:05:20.159Z,63.763428
2019-04-01T20:06:29.225Z,64.001465
2019-04-01T20:07:38.785Z,64.306641
2019-04-01T20:08:49.759Z,64.715576
2019-04-01T20:09:58.827Z,64.819336
2019-04-01T20:11:09.543Z,64.819336
2019-04-01T20:12:20.002Z,65.228271
2019-04-01T20:13:29.534Z,65.362549
2019-04-01T20:14:39.268Z,65.570068
2019-04-01T20:15:48.592Z,65.570068
2019-04-01T20:16:58.186Z,65.771484
2019-04-01T20:18:07.957Z,65.979004
2019-04-01T20:19:17.237Z,66.186523
2019-04-01T20:20:26.793Z,66.314697
2019-04-01T20:21:36.352Z,66.314697
2019-04-01T20:22:45.868Z,66.522217
2019-04-01T20:23:55.435Z,66.314697
2019-04-01T20:25:04.959Z,66.522217
2019-04-01T20:26:14.556Z,66.729736
2019-04-01T20:27:24.072Z,66.625977
2019-04-01T20:28:33.614Z,66.729736
2019-04-01T20:29:43.125Z,66.833496
2019-04-01T20:30:52.699Z,67.242432
2019-04-01T20:32:02.284Z,67.651367
2019-04-01T20:33:17.824Z,67.06543
2019-04-01T20:34:23.259Z,67.480469
2019-04-01T20:35:34.492Z,67.272949
2019-04-01T20:36:42.374Z,67.578125
2019-04-01T20:37:51.900Z,67.681885
2019-04-01T20:39:01.411Z,67.785645
2019-04-01T20:40:10.924Z,68.023682
2019-04-01T20:41:21.186Z,68.023682
2019-04-01T20:42:33.525Z,68.231201
2019-04-01T20:43:40.541Z,68.231201
2019-04-01T20:44:50.056Z,68.432617
2019-04-01T20:45:59.570Z,68.432617
2019-04-01T20:47:09.104Z,68.231201
2019-04-01T20:48:18.607Z,68.432617
2019-04-01T20:49:28.145Z,68.432617
2019-04-01T20:50:37.665Z,68.463135
2019-04-01T20:51:47.185Z,68.365479
2019-04-01T20:52:56.721Z,68.463135
2019-04-01T20:54:06.236Z,68.878174
2019-04-01T20:55:15.745Z,68.774414
2019-04-01T20:56:25.279Z,68.463135
2019-04-01T20:57:34.806Z,68.463135
2019-04-01T20:58:44.325Z,68.566895
2019-04-01T20:59:53.912Z,68.878174
2019-04-01T21:01:03.425Z,68.908691
2019-04-01T21:02:12.955Z,69.012451
2019-04-01T21:03:22.492Z,69.116211
2019-04-01T21:04:32.051Z,69.219971
2019-04-01T21:05:41.563Z,68.908691
2019-04-01T21:06:51.090Z,69.012451
2019-04-01T21:08:00.609Z,69.116211
2019-04-01T21:09:10.130Z,69.116211
2019-04-01T21:10:20.645Z,68.908691
2019-04-01T21:11:30.172Z,69.116211
2019-04-01T21:12:39.715Z,69.219971
2019-04-01T21:13:49.240Z,69.458008
2019-04-01T21:14:58.758Z,69.354248
2019-04-01T21:16:08.265Z,69.250488
2019-04-01T21:17:17.807Z,69.250488
2019-04-01T21:18:27.335Z,69.555664
2019-04-01T21:19:36.878Z,69.763184
2019-04-01T21:20:46.401Z,69.555664
2019-04-01T21:21:55.938Z,69.659424
2019-04-01T21:23:06.213Z,69.897461
2019-04-01T21:24:14.995Z,69.897461
2019-04-01T21:25:24.517Z,70.001221
2019-04-01T21:26:35.077Z,70.10498
2019-04-01T21:27:44.644Z,70.20874
2019-04-01T21:28:54.428Z,70.10498
2019-04-01T21:30:03.722Z,70.001221
2019-04-01T21:31:13.234Z,70.3125
2019-04-01T21:32:22.755Z,70.3125
2019-04-01T21:33:32.283Z,70.3125
2019-04-01T21:34:41.797Z,70.52002
2019-04-01T21:35:51.311Z,70.617676
2019-04-01T21:37:03.210Z,70.758057
2019-04-01T21:38:11.369Z,70.758057
2019-04-01T21:39:20.886Z,71.063232
2019-04-01T21:40:30.402Z,70.959473
2019-04-01T21:41:39.932Z,71.270752
2019-04-01T21:42:50.452Z,71.063232
2019-04-01T21:43:58.986Z,70.959473
2019-04-01T21:45:08.511Z,70.861816
2019-04-01T21:46:18.067Z,71.270752
2019-04-01T21:47:27.645Z,71.270752
2019-04-01T21:48:38.143Z,71.063232
2019-04-01T21:49:46.673Z,71.203613
2019-04-01T21:50:56.188Z,71.405029
2019-04-01T21:52:05.795Z,71.508789
2019-04-01T21:53:15.319Z,71.612549
2019-04-01T21:54:24.839Z,72.027588
2019-04-01T21:55:34.370Z,71.923828
2019-04-01T21:56:43.913Z,72.161865
2019-04-01T21:57:53.427Z,72.265625
2019-04-01T21:59:02.954Z,72.576904
2019-04-01T22:00:13.252Z,72.674561
2019-04-01T22:01:22.963Z,72.473145
2019-04-01T22:02:35.963Z,72.674561
2019-04-01T22:03:42.118Z,72.674561
2019-04-01T22:04:51.523Z,72.674561
2019-04-01T22:06:01.072Z,72.77832
2019-04-01T22:07:10.613Z,72.98584
2019-04-01T22:08:20.154Z,72.98584
2019-04-01T22:09:29.674Z,73.0896
2019-04-01T22:10:39.202Z,73.193359
2019-04-01T22:11:48.727Z,73.0896
2019-04-01T22:12:58.254Z,72.918701
2019-04-01T22:14:07.775Z,73.223877
2019-04-01T22:15:18.731Z,73.223877
2019-04-01T22:16:26.819Z,73.022461
2019-04-01T22:17:36.396Z,73.223877
2019-04-01T22:18:45.935Z,73.223877
2019-04-01T22:19:55.451Z,73.431396
2019-04-01T22:21:04.977Z,73.535156
2019-04-01T22:22:14.521Z,73.535156
2019-04-01T22:23:24.063Z,73.638916
2019-04-01T22:24:33.578Z,73.638916
2019-04-01T22:25:43.092Z,73.638916
2019-04-01T22:26:52.618Z,73.638916
2019-04-01T22:28:02.151Z,73.535156
2019-04-01T22:29:11.662Z,73.638916
2019-04-01T22:30:21.219Z,74.053955
2019-04-01T22:31:30.743Z,74.053955
2019-04-01T22:32:41.195Z,74.151611
2019-04-01T22:33:49.783Z,74.255371
2019-04-01T22:34:59.309Z,74.395752
2019-04-01T22:36:10.368Z,74.499512
2019-04-01T22:37:26.900Z,74.188232
2019-04-01T22:38:29.837Z,74.810791
2019-04-01T22:39:40.349Z,75.012207
2019-04-01T22:40:50.880Z,74.908447
2019-04-01T22:42:00.371Z,74.908447
2019-04-01T22:43:09.916Z,75.219727
2019-04-01T22:44:19.415Z,75.219727
2019-04-01T22:45:28.920Z,75.360107
2019-04-01T22:46:38.440Z,75.048828
2019-04-01T22:47:47.954Z,74.945068
2019-04-01T22:48:57.471Z,75.256348
2019-04-01T22:50:06.977Z,75.872803
2019-04-01T22:51:16.522Z,75.567627
2019-04-01T22:52:26.027Z,75.909424
2019-04-01T22:53:35.604Z,75.085449
2019-04-01T22:54:45.133Z,74.981689
2019-04-01T22:55:54.641Z,75.390625
2019-04-01T22:57:04.153Z,75.390625
2019-04-01T22:58:13.680Z,76.428223
2019-04-01T22:59:23.253Z,76.116943
2019-04-01T23:00:32.744Z,75.805664
2019-04-01T23:01:42.257Z,75.701904
2019-04-01T23:02:51.769Z,75.946045
2019-04-01T23:04:01.320Z,76.5625
2019-04-01T23:05:10.848Z,76.77002
2019-04-01T23:06:20.376Z,75.946045
2019-04-01T23:07:30.875Z,76.77002
2019-04-01T23:08:40.405Z,76.66626
2019-04-01T23:09:49.916Z,76.049805
2019-04-01T23:10:59.417Z,76.257324
2019-04-01T23:12:08.935Z,76.324463
2019-04-01T23:13:19.184Z,75.805664
2019-04-01T23:14:27.994Z,76.324463
2019-04-01T23:15:37.512Z,76.220703
2019-04-01T23:16:47.026Z,74.981689
2019-04-01T23:17:56.550Z,74.77417
2019-04-01T23:19:06.068Z,74.67041
2019-04-01T23:20:15.580Z,74.981689
2019-04-01T23:21:25.124Z,75.219727
2019-04-01T23:22:35.622Z,75.531006
2019-04-01T23:23:45.215Z,75.878906
2019-04-01T23:24:54.737Z,76.599121
2019-04-01T23:26:04.245Z,75.775146
2019-04-01T23:27:13.764Z,76.220703
2019-04-01T23:28:24.175Z,77.667236
2019-04-01T23:29:32.782Z,77.154541
2019-04-01T23:30:42.303Z,77.258301
2019-04-01T23:31:51.810Z,77.874756
2019-04-01T23:33:01.315Z,78.186035
2019-04-01T23:34:10.874Z,77.46582
2019-04-01T23:35:20.389Z,76.635742
2019-04-01T23:36:29.907Z,76.116943
2019-04-01T23:37:39.470Z,75.909424
2019-04-01T23:38:48.999Z,76.776123
2019-04-01T23:39:58.513Z,77.392578
2019-04-01T23:41:08.023Z,77.807617
2019-04-01T23:42:24.833Z,79.260254
2019-04-01T23:43:34.364Z,79.156494
2019-04-01T23:44:43.874Z,79.56543
2019-04-01T23:45:53.372Z,79.772949
2019-04-01T23:47:02.876Z,77.807617
2019-04-01T23:48:13.073Z,78.845215
2019-04-01T23:49:21.939Z,77.496338
2019-04-01T23:50:31.444Z,78.466797
2019-04-01T23:51:40.939Z,77.740479
2019-04-01T23:52:50.473Z,78.607178
2019-04-01T23:54:00.068Z,79.846191
2019-04-01T23:55:09.561Z,80.780029
2019-04-01T23:56:19.060Z,80.987549
2019-04-01T23:57:28.607Z,80.157471
2019-04-01T23:58:38.109Z,80.847168
2019-04-01T23:59:48.234Z,79.705811
